createdAt,value
2018-01-04T00:01:18.000Z,39.129
2018-01-04T00:11:18.000Z,38.94
2018-01-04T00:21:18.000Z,39.057
2018-01-04T00:31:18.000Z,38.976
2018-01-04T00:41:18.000Z,39.135
2018-01-04T00:51:18.000Z,39.11
2018-01-04T01:01:19.000Z,39.515
2018-01-04T01:11:18.000Z,39.587
2018-01-04T01:21:18.000Z,39.767
2018-01-04T01:31:18.000Z,39.818
2018-01-04T01:41:18.000Z,40.094
2018-01-04T01:51:18.000Z,40.114
2018-01-04T02:01:18.000Z,40.261
2018-01-04T02:11:18.000Z,40.474
2018-01-04T02:21:18.000Z,40.375
2018-01-04T02:31:18.000Z,40.394
2018-01-04T02:41:18.000Z,40.477
2018-01-04T02:51:19.000Z,40.464
2018-01-04T03:01:18.000Z,40.495
2018-01-04T03:11:18.000Z,40.471
2018-01-04T03:21:18.000Z,40.196
2018-01-04T03:31:18.000Z,40.29
2018-01-04T03:41:18.000Z,40.353
2018-01-04T03:51:18.000Z,40.245
2018-01-04T04:01:18.000Z,40.276
2018-01-04T04:11:18.000Z,40.34
2018-01-04T04:21:18.000Z,40.967
2018-01-04T04:31:18.000Z,40.743
2018-01-04T04:41:18.000Z,40.676
2018-01-04T04:51:18.000Z,40.642
2018-01-04T05:01:18.000Z,40.811
2018-01-04T05:11:19.000Z,40.377
2018-01-04T05:21:19.000Z,40.205
2018-01-04T05:31:19.000Z,40.065
2018-01-04T05:41:19.000Z,40.321
2018-01-04T05:51:19.000Z,40.16
2018-01-04T06:01:19.000Z,40.116
2018-01-04T06:11:19.000Z,40.02
2018-01-04T06:21:19.000Z,39.988
2018-01-04T06:31:19.000Z,39.965
2018-01-04T06:41:19.000Z,39.836
2018-01-04T06:51:19.000Z,39.793
2018-01-04T07:01:19.000Z,39.783
2018-01-04T07:11:19.000Z,39.59
2018-01-04T07:21:19.000Z,39.612
2018-01-04T07:31:19.000Z,39.343
2018-01-04T07:41:19.000Z,39.408
2018-01-04T07:51:19.000Z,39.194
2018-01-04T08:01:19.000Z,39.204
2018-01-04T08:11:19.000Z,38.872
2018-01-04T08:21:19.000Z,38.861
2018-01-04T08:31:19.000Z,38.71
2018-01-04T08:41:19.000Z,38.657
2018-01-04T08:51:19.000Z,38.615
2018-01-04T09:01:19.000Z,38.335
2018-01-04T09:11:19.000Z,38.282
2018-01-04T09:21:19.000Z,38.283
2018-01-04T09:31:19.000Z,38.132
2018-01-04T09:41:19.000Z,37.366
2018-01-04T09:51:19.000Z,37.459
2018-01-04T10:01:20.000Z,37.094
2018-01-04T10:11:20.000Z,36.931
2018-01-04T10:21:19.000Z,36.801
2018-01-04T10:31:19.000Z,36.778
2018-01-04T10:51:19.000Z,36.346
2018-01-04T11:01:21.000Z,36.501
2018-01-04T11:11:19.000Z,35.994
2018-01-04T11:21:19.000Z,35.655
2018-01-04T11:31:19.000Z,35.539
2018-01-04T11:41:19.000Z,35.897
2018-01-04T11:51:19.000Z,35.791
2018-01-04T12:01:19.000Z,35.78
2018-01-04T12:11:19.000Z,35.877
2018-01-04T12:21:19.000Z,35.806
2018-01-04T12:31:19.000Z,35.688
2018-01-04T12:41:19.000Z,35.911
2018-01-04T12:51:19.000Z,35.498
2018-01-04T13:01:19.000Z,35.536
2018-01-04T13:11:19.000Z,35.433
2018-01-04T13:21:19.000Z,35.277
2018-01-04T13:31:19.000Z,35.044
2018-01-04T13:41:20.000Z,35.304
2018-01-04T13:51:20.000Z,35.312
2018-01-04T14:11:20.000Z,35.88
2018-01-04T14:21:20.000Z,35.756
2018-01-04T14:31:20.000Z,36.18
2018-01-04T14:41:21.000Z,35.693
2018-01-04T14:51:20.000Z,35.429
2018-01-04T15:01:20.000Z,35.437
2018-01-04T15:11:20.000Z,34.874
2018-01-04T15:21:20.000Z,34.613
2018-01-04T15:31:20.000Z,34.601
2018-01-04T15:41:20.000Z,34.621
2018-01-04T15:51:20.000Z,34.471
2018-01-04T16:01:20.000Z,34.704
2018-01-04T16:11:20.000Z,34.858
2018-01-04T16:21:20.000Z,34.904
2018-01-04T16:31:20.000Z,35.296
2018-01-04T16:41:20.000Z,36.561
2018-01-04T16:51:20.000Z,37.744
2018-01-04T17:01:20.000Z,38.16
2018-01-04T17:11:22.000Z,37.763
2018-01-04T17:21:20.000Z,38.459
2018-01-04T17:31:20.000Z,40.231
2018-01-04T17:41:20.000Z,41.072
2018-01-04T17:51:20.000Z,41.369
2018-01-04T18:01:20.000Z,41.568
2018-01-04T18:11:20.000Z,42.829
2018-01-04T18:21:20.000Z,43.094
2018-01-04T18:31:20.000Z,43.179
2018-01-04T18:41:20.000Z,43.24
2018-01-04T18:51:20.000Z,43.225
2018-01-04T19:01:20.000Z,43.187
2018-01-04T19:11:20.000Z,43.245
2018-01-04T19:21:20.000Z,43.084
2018-01-04T19:31:20.000Z,42.987
2018-01-04T19:41:20.000Z,42.872
2018-01-04T19:51:20.000Z,43.016
2018-01-04T20:01:20.000Z,43.15
2018-01-04T20:11:20.000Z,43.015
2018-01-04T20:21:20.000Z,43.095
2018-01-04T20:31:20.000Z,43.047
2018-01-04T20:41:20.000Z,43.017
2018-01-04T21:01:21.000Z,43.11
2018-01-04T21:11:20.000Z,40.361
2018-01-04T21:21:20.000Z,42.219
2018-01-04T21:31:20.000Z,43.069
2018-01-04T21:41:20.000Z,43.582
2018-01-04T21:51:20.000Z,43.494
2018-01-04T22:01:21.000Z,43.894
2018-01-04T22:11:21.000Z,43.409
2018-01-04T22:21:21.000Z,43.495
2018-01-04T22:31:22.000Z,43.327
2018-01-04T22:41:21.000Z,43.544
2018-01-04T22:51:21.000Z,43.933
2018-01-04T23:01:21.000Z,44.045
2018-01-04T23:11:21.000Z,44.119
2018-01-04T23:21:21.000Z,44.264
2018-01-04T23:31:21.000Z,44.442
2018-01-04T23:41:21.000Z,44.524
2018-01-04T23:51:21.000Z,44.696
